createdAt,value
2022-12-25T00:00:53.816Z,260.13
2022-12-25T00:03:24.712Z,269.88
2022-12-25T00:05:51.719Z,284.20
2022-12-25T00:08:18.413Z,298.08
2022-12-25T00:10:45.836Z,299.55
2022-12-25T00:13:12.719Z,279.95
2022-12-25T00:15:40.583Z,276.65
2022-12-25T00:18:07.321Z,255.98
2022-12-25T00:20:34.211Z,248.82
2022-12-25T00:23:00.896Z,234.93
2022-12-25T00:25:27.616Z,250.05
2022-12-25T00:27:54.391Z,253.20
2022-12-25T00:30:21.159Z,268.13
2022-12-25T00:32:47.987Z,252.23
2022-12-25T00:35:14.683Z,253.25
2022-12-25T00:37:41.338Z,260.13
2022-12-25T00:40:08.258Z,248.93
2022-12-25T00:42:34.992Z,253.10
2022-12-25T00:45:01.706Z,239.18
2022-12-25T00:47:29.480Z,241.35
2022-12-25T00:49:56.184Z,230.45
2022-12-25T00:52:22.895Z,235.73
2022-12-25T00:54:49.545Z,226.50
2022-12-25T00:57:16.497Z,231.32
2022-12-25T00:59:46.499Z,234.75
2022-12-25T01:02:25.555Z,244.55
2022-12-25T01:04:56.740Z,257.73
2022-12-25T01:07:24.813Z,266.20
2022-12-25T01:10:10.574Z,254.40
2022-12-25T01:12:39.016Z,249.40
2022-12-25T01:15:07.249Z,248.63
2022-12-25T01:17:34.391Z,253.65
2022-12-25T01:20:01.308Z,244.23
2022-12-25T01:22:28.178Z,226.30
2022-12-25T01:24:55.013Z,222.05
2022-12-25T01:27:21.836Z,222.50
2022-12-25T01:29:48.503Z,206.70
2022-12-25T01:32:15.190Z,201.63
2022-12-25T01:34:41.913Z,185.45
2022-12-25T01:37:08.599Z,194.20
2022-12-25T01:39:35.302Z,187.88
2022-12-25T01:42:02.024Z,181.57
2022-12-25T01:44:37.451Z,195.52
2022-12-25T01:47:04.811Z,179.68
2022-12-25T01:49:33.277Z,179.80
2022-12-25T01:52:05.067Z,182.82
2022-12-25T01:54:33.534Z,176.20
2022-12-25T01:57:02.419Z,176.95
2022-12-25T01:59:29.603Z,182.85
2022-12-25T02:01:57.016Z,178.98
2022-12-25T02:04:24.191Z,176.20
2022-12-25T02:06:51.662Z,189.60
2022-12-25T02:09:18.914Z,187.98
2022-12-25T02:11:58.408Z,185.20
2022-12-25T02:14:27.425Z,176.73
2022-12-25T02:17:01.892Z,176.30
2022-12-25T02:19:28.616Z,181.23
2022-12-25T02:22:05.277Z,181.15
2022-12-25T02:24:34.907Z,169.32
2022-12-25T02:27:05.419Z,171.80
2022-12-25T02:29:50.603Z,163.07
2022-12-25T02:32:27.581Z,160.95
2022-12-25T02:35:08.618Z,167.60
2022-12-25T02:37:38.952Z,166.20
2022-12-25T02:40:05.678Z,161.35
2022-12-25T02:43:09.690Z,154.38
2022-12-25T02:45:58.391Z,163.70
2022-12-25T02:48:45.575Z,173.88
2022-12-25T02:51:33.375Z,152.15
2022-12-25T02:54:19.930Z,158.25
2022-12-25T02:57:06.311Z,150.85
2022-12-25T02:59:53.578Z,162.65
2022-12-25T03:02:40.056Z,165.15
2022-12-25T03:05:27.868Z,159.18
2022-12-25T03:07:55.681Z,159.27
2022-12-25T03:10:41.039Z,142.25
2022-12-25T03:13:19.678Z,161.15
2022-12-25T03:16:06.967Z,154.63
2022-12-25T03:18:34.302Z,158.32
2022-12-25T03:21:19.988Z,162.25
2022-12-25T03:24:21.639Z,154.60
2022-12-25T03:26:57.979Z,140.55
2022-12-25T03:29:44.742Z,143.40
2022-12-25T03:32:30.270Z,134.05
2022-12-25T03:35:24.400Z,129.98
2022-12-25T03:38:09.890Z,133.90
2022-12-25T03:41:09.089Z,135.88
2022-12-25T03:44:03.664Z,131.88
2022-12-25T03:46:52.739Z,129.07
2022-12-25T03:49:48.046Z,131.20
2022-12-25T03:52:34.833Z,123.45
2022-12-25T03:55:22.205Z,133.65
2022-12-25T03:58:07.652Z,129.35
2022-12-25T04:00:53.188Z,125.80
2022-12-25T04:03:38.967Z,127.68
2022-12-25T04:06:24.458Z,125.18
2022-12-25T04:09:10.104Z,122.57
2022-12-25T04:12:02.043Z,116.57
2022-12-25T04:14:47.741Z,112.88
2022-12-25T04:17:33.320Z,111.80
2022-12-25T04:20:18.656Z,114.55
2022-12-25T04:23:03.731Z,115.55
2022-12-25T04:25:48.823Z,114.07
2022-12-25T04:28:33.946Z,114.43
2022-12-25T04:31:19.470Z,111.20
2022-12-25T04:34:05.012Z,107.95
2022-12-25T04:36:31.795Z,105.57
2022-12-25T04:38:58.511Z,104.18
2022-12-25T04:41:25.258Z,108.97
2022-12-25T04:43:52.007Z,105.57
2022-12-25T04:46:18.906Z,97.95
2022-12-25T04:48:45.678Z,110.32
2022-12-25T04:51:16.752Z,107.00
2022-12-25T04:53:43.863Z,106.25
2022-12-25T04:56:10.943Z,109.95
2022-12-25T04:58:37.979Z,102.10
2022-12-25T05:01:05.376Z,103.32
2022-12-25T05:03:32.518Z,97.80
2022-12-25T05:05:59.309Z,96.47
2022-12-25T05:08:26.198Z,96.93
2022-12-25T05:10:53.045Z,98.03
2022-12-25T05:13:19.717Z,103.68
2022-12-25T05:15:46.401Z,91.32
2022-12-25T05:18:13.280Z,99.68
2022-12-25T05:20:40.602Z,102.18
2022-12-25T05:23:08.640Z,102.43
2022-12-25T05:25:38.435Z,98.45
2022-12-25T05:28:05.190Z,99.35
2022-12-25T05:30:31.856Z,101.00
2022-12-25T05:32:58.570Z,97.47
2022-12-25T05:35:25.553Z,104.97
2022-12-25T05:37:52.287Z,103.82
2022-12-25T05:40:18.985Z,103.20
2022-12-25T05:42:45.735Z,105.30
2022-12-25T05:45:12.768Z,99.80
2022-12-25T05:47:39.515Z,107.10
2022-12-25T05:50:06.600Z,106.28
2022-12-25T05:52:34.020Z,108.05
2022-12-25T05:55:01.154Z,104.03
2022-12-25T05:57:28.833Z,101.20
2022-12-25T05:59:55.636Z,106.15
2022-12-25T06:02:22.686Z,109.45
2022-12-25T06:04:49.671Z,101.97
2022-12-25T06:07:16.814Z,111.82
2022-12-25T06:09:43.703Z,109.15
2022-12-25T06:12:10.437Z,106.07
2022-12-25T06:14:37.206Z,113.30
2022-12-25T06:17:04.650Z,107.45
2022-12-25T06:19:31.553Z,106.47
2022-12-25T06:21:58.243Z,108.97
2022-12-25T06:24:25.332Z,116.35
2022-12-25T06:26:52.139Z,107.03
2022-12-25T06:29:18.832Z,107.15
2022-12-25T06:31:45.552Z,111.72
2022-12-25T06:34:16.221Z,108.75
2022-12-25T06:36:43.380Z,108.18
2022-12-25T06:39:10.034Z,109.63
2022-12-25T06:41:36.691Z,109.07
2022-12-25T06:44:03.367Z,104.90
2022-12-25T06:46:30.469Z,110.90
2022-12-25T06:48:57.931Z,102.22
2022-12-25T06:51:26.129Z,110.60
2022-12-25T06:53:53.292Z,108.55
2022-12-25T06:56:21.569Z,102.28
2022-12-25T06:58:50.398Z,108.15
2022-12-25T07:01:19.354Z,107.60
2022-12-25T07:03:47.392Z,109.53
2022-12-25T07:06:15.129Z,109.47
2022-12-25T07:08:42.362Z,104.03
2022-12-25T07:11:09.770Z,103.85
2022-12-25T07:13:36.532Z,103.70
2022-12-25T07:16:04.355Z,111.90
2022-12-25T07:18:31.673Z,104.45
2022-12-25T07:21:01.323Z,106.82
2022-12-25T07:23:28.088Z,111.05
2022-12-25T07:25:55.383Z,115.20
2022-12-25T07:28:22.026Z,102.88
2022-12-25T07:30:48.952Z,113.70
2022-12-25T07:33:16.351Z,120.57
2022-12-25T07:35:43.310Z,111.03
2022-12-25T07:38:10.370Z,109.13
2022-12-25T07:40:37.489Z,107.82
2022-12-25T07:43:04.291Z,115.63
2022-12-25T07:45:31.000Z,117.88
2022-12-25T07:48:04.355Z,113.78
2022-12-25T07:50:32.504Z,112.15
2022-12-25T07:52:59.285Z,113.45
2022-12-25T07:55:26.081Z,107.28
2022-12-25T07:57:53.158Z,109.68
2022-12-25T08:00:20.345Z,108.45
2022-12-25T08:02:50.860Z,113.80
2022-12-25T08:05:17.849Z,107.40
2022-12-25T08:07:45.201Z,107.85
2022-12-25T08:10:12.207Z,103.63
2022-12-25T08:12:38.963Z,103.53
2022-12-25T08:15:05.936Z,110.03
2022-12-25T08:17:34.536Z,116.72
2022-12-25T08:20:01.259Z,108.00
2022-12-25T08:22:28.028Z,104.22
2022-12-25T08:24:54.658Z,104.20
2022-12-25T08:27:21.398Z,113.53
2022-12-25T08:29:48.027Z,116.47
2022-12-25T08:32:14.668Z,111.45
2022-12-25T08:34:41.446Z,107.07
2022-12-25T08:37:08.240Z,107.35
2022-12-25T08:39:35.002Z,107.65
2022-12-25T08:42:01.748Z,116.93
2022-12-25T08:44:28.407Z,115.50
2022-12-25T08:46:55.264Z,108.28
2022-12-25T08:49:22.017Z,97.88
2022-12-25T08:51:48.935Z,99.90
2022-12-25T08:54:15.656Z,103.80
2022-12-25T08:56:42.707Z,99.93
2022-12-25T08:59:09.599Z,99.65
2022-12-25T09:01:36.487Z,100.45
2022-12-25T09:04:03.364Z,100.13
2022-12-25T09:06:30.088Z,104.93
2022-12-25T09:08:56.783Z,99.28
2022-12-25T09:11:24.484Z,97.93
2022-12-25T09:13:51.229Z,97.50
2022-12-25T09:16:20.187Z,93.88
2022-12-25T09:18:47.127Z,100.85
2022-12-25T09:21:14.771Z,93.13
2022-12-25T09:23:42.288Z,96.53
2022-12-25T09:26:11.290Z,95.80
2022-12-25T09:28:38.443Z,95.38
2022-12-25T09:31:05.620Z,93.72
2022-12-25T09:33:32.661Z,92.85
2022-12-25T09:36:03.881Z,85.88
2022-12-25T09:38:30.947Z,97.70
2022-12-25T09:41:03.467Z,92.50
2022-12-25T09:43:33.446Z,96.00
2022-12-25T09:46:02.361Z,99.35
2022-12-25T09:48:31.222Z,93.47
2022-12-25T09:51:00.801Z,89.68
2022-12-25T09:53:29.525Z,91.45
2022-12-25T09:56:03.504Z,93.88
2022-12-25T09:58:31.891Z,84.95
2022-12-25T10:01:07.992Z,92.43
2022-12-25T10:03:53.646Z,95.38
2022-12-25T10:06:32.529Z,99.05
2022-12-25T10:09:08.571Z,97.15
2022-12-25T10:11:44.309Z,89.57
2022-12-25T10:14:11.105Z,123.22
2022-12-25T10:16:56.502Z,93.63
2022-12-25T10:19:23.284Z,91.70
2022-12-25T10:21:52.554Z,89.45
2022-12-25T10:24:37.034Z,98.65
2022-12-25T10:27:07.260Z,91.03
2022-12-25T10:29:35.019Z,93.57
2022-12-25T10:32:01.740Z,102.25
2022-12-25T10:34:28.932Z,97.53
2022-12-25T10:36:55.783Z,85.00
2022-12-25T10:39:24.249Z,91.75
2022-12-25T10:42:03.379Z,88.88
2022-12-25T10:44:30.274Z,91.57
2022-12-25T10:46:58.519Z,86.03
2022-12-25T10:49:28.403Z,76.10
2022-12-25T10:51:55.109Z,88.25
2022-12-25T10:54:23.647Z,85.15
2022-12-25T10:56:58.218Z,83.47
2022-12-25T10:59:29.219Z,94.53
2022-12-25T11:01:57.196Z,83.35
2022-12-25T11:04:28.843Z,89.53
2022-12-25T11:06:56.932Z,99.95
2022-12-25T11:09:24.061Z,99.22
2022-12-25T11:11:51.036Z,93.20
2022-12-25T11:14:20.366Z,106.15
2022-12-25T11:16:47.246Z,122.55
2022-12-25T11:19:21.368Z,146.43
2022-12-25T11:21:52.613Z,145.53
2022-12-25T11:24:21.061Z,95.18
2022-12-25T11:26:49.193Z,93.75
2022-12-25T11:29:21.807Z,94.50
2022-12-25T11:31:50.014Z,93.65
2022-12-25T11:34:29.175Z,89.68
2022-12-25T11:36:57.605Z,97.75
2022-12-25T11:39:31.663Z,91.72
2022-12-25T11:41:58.387Z,89.18
2022-12-25T11:44:44.207Z,89.35
2022-12-25T11:47:21.504Z,87.78
2022-12-25T11:49:53.965Z,89.93
2022-12-25T11:52:26.139Z,92.78
2022-12-25T11:55:00.113Z,94.38
2022-12-25T11:57:29.344Z,101.75
2022-12-25T11:59:59.355Z,99.38
2022-12-25T12:02:30.336Z,93.43
2022-12-25T12:05:04.189Z,97.13
2022-12-25T12:07:33.922Z,93.93
2022-12-25T12:10:10.175Z,98.78
2022-12-25T12:12:36.963Z,98.45
2022-12-25T12:15:13.940Z,95.82
2022-12-25T12:17:40.643Z,107.03
2022-12-25T12:20:12.241Z,100.85
2022-12-25T12:22:39.336Z,100.82
2022-12-25T12:25:07.169Z,96.28
2022-12-25T12:27:33.848Z,84.30
2022-12-25T12:30:01.264Z,94.10
2022-12-25T12:32:44.672Z,90.05
2022-12-25T12:35:18.982Z,91.03
2022-12-25T12:37:51.324Z,98.15
2022-12-25T12:40:27.059Z,90.90
2022-12-25T12:42:54.337Z,100.05
2022-12-25T12:45:25.866Z,91.13
2022-12-25T12:50:27.646Z,97.82
2022-12-25T12:52:54.359Z,97.35
2022-12-25T12:55:28.655Z,97.57
2022-12-25T12:58:03.011Z,93.75
2022-12-25T13:00:36.465Z,95.65
2022-12-25T13:03:10.490Z,96.88
2022-12-25T13:05:48.056Z,101.50
2022-12-25T13:08:21.092Z,92.82
2022-12-25T13:10:53.232Z,93.82
2022-12-25T13:13:28.419Z,101.80
2022-12-25T13:15:57.602Z,102.57
2022-12-25T13:18:24.624Z,104.65
2022-12-25T13:20:56.702Z,100.63
2022-12-25T13:23:26.502Z,101.78
2022-12-25T13:25:54.510Z,108.00
2022-12-25T13:28:25.236Z,96.68
2022-12-25T13:30:51.905Z,97.75
2022-12-25T13:33:20.406Z,105.00
2022-12-25T13:35:47.429Z,100.30
2022-12-25T13:38:15.973Z,99.38
2022-12-25T13:41:09.517Z,98.80
2022-12-25T13:43:36.485Z,105.07
2022-12-25T13:46:04.469Z,102.75
2022-12-25T13:48:31.595Z,98.03
2022-12-25T13:50:59.260Z,108.93
2022-12-25T13:53:26.908Z,107.28
2022-12-25T13:55:58.452Z,118.50
2022-12-25T13:58:27.624Z,106.88
2022-12-25T14:00:56.844Z,107.25
2022-12-25T14:03:46.442Z,106.03
2022-12-25T14:06:30.691Z,102.50
2022-12-25T14:08:58.414Z,114.00
2022-12-25T14:11:27.098Z,110.93
2022-12-25T14:13:58.519Z,109.50
2022-12-25T14:16:25.992Z,109.75
2022-12-25T14:18:54.388Z,109.75
2022-12-25T14:21:26.918Z,117.82
2022-12-25T14:23:54.070Z,124.90
2022-12-25T14:26:22.413Z,122.35
2022-12-25T14:28:50.395Z,111.65
2022-12-25T14:31:17.432Z,114.45
2022-12-25T14:33:45.088Z,103.55
2022-12-25T14:36:13.309Z,107.32
2022-12-25T14:38:42.634Z,111.22
2022-12-25T14:41:24.266Z,110.80
2022-12-25T14:43:54.177Z,110.47
2022-12-25T14:46:24.662Z,108.75
2022-12-25T14:49:01.627Z,109.88
2022-12-25T14:51:28.807Z,119.32
2022-12-25T14:53:57.012Z,105.07
2022-12-25T14:56:26.013Z,104.22
2022-12-25T14:58:57.946Z,110.45
2022-12-25T15:01:24.966Z,124.60
2022-12-25T15:03:51.742Z,109.30
2022-12-25T15:06:20.167Z,113.88
2022-12-25T15:08:57.080Z,120.53
2022-12-25T15:11:23.762Z,118.63
2022-12-25T15:13:50.639Z,114.40
2022-12-25T15:16:28.748Z,121.32
2022-12-25T15:18:55.893Z,120.25
2022-12-25T15:21:25.838Z,126.90
2022-12-25T15:23:53.756Z,119.63
2022-12-25T15:26:20.452Z,118.40
2022-12-25T15:28:47.436Z,120.07
2022-12-25T15:31:22.488Z,120.28
2022-12-25T15:33:49.609Z,124.82
2022-12-25T15:36:16.549Z,121.97
2022-12-25T15:38:43.713Z,129.45
2022-12-25T15:41:35.934Z,131.63
2022-12-25T15:44:03.007Z,128.10
2022-12-25T15:46:30.105Z,141.38
2022-12-25T15:48:56.924Z,116.60
2022-12-25T15:51:23.663Z,132.65
2022-12-25T15:53:50.329Z,131.65
2022-12-25T15:56:17.674Z,127.07
2022-12-25T15:58:44.738Z,126.70
2022-12-25T16:01:14.172Z,125.75
2022-12-25T16:03:41.372Z,142.43
2022-12-25T16:06:15.435Z,127.47
2022-12-25T16:08:42.629Z,138.35
2022-12-25T16:11:09.485Z,143.13
2022-12-25T16:13:36.223Z,128.70
2022-12-25T16:16:05.164Z,126.85
2022-12-25T16:18:31.954Z,124.97
2022-12-25T16:21:02.122Z,134.43
2022-12-25T16:23:29.025Z,126.85
2022-12-25T16:25:55.666Z,127.30
2022-12-25T16:28:22.374Z,135.77
2022-12-25T16:30:49.141Z,121.00
2022-12-25T16:33:15.948Z,132.13
2022-12-25T16:35:42.709Z,120.25
2022-12-25T16:38:09.420Z,119.82
2022-12-25T16:40:36.072Z,126.85
2022-12-25T16:43:02.781Z,134.07
2022-12-25T16:45:29.431Z,131.93
2022-12-25T16:47:56.692Z,137.25
2022-12-25T16:50:23.377Z,124.20
2022-12-25T16:52:50.103Z,136.85
2022-12-25T16:55:16.916Z,134.25
2022-12-25T16:57:43.616Z,124.72
2022-12-25T17:00:13.001Z,129.00
2022-12-25T17:02:40.866Z,124.25
2022-12-25T17:05:07.847Z,127.50
2022-12-25T17:07:35.466Z,134.65
2022-12-25T17:10:02.233Z,133.63
2022-12-25T17:12:28.931Z,140.63
2022-12-25T17:14:57.949Z,139.63
2022-12-25T17:17:24.653Z,139.38
2022-12-25T17:19:51.304Z,142.25
2022-12-25T17:22:18.013Z,134.02
2022-12-25T17:24:44.754Z,138.80
2022-12-25T17:27:11.613Z,158.45
2022-12-25T17:29:42.695Z,141.90
2022-12-25T17:32:12.269Z,150.40
2022-12-25T17:34:38.929Z,146.23
2022-12-25T17:37:05.762Z,158.23
2022-12-25T17:39:32.480Z,145.70
2022-12-25T17:41:59.239Z,149.07
2022-12-25T17:44:26.030Z,138.85
2022-12-25T17:46:53.154Z,142.73
2022-12-25T17:49:21.100Z,150.57
2022-12-25T17:51:48.162Z,144.27
2022-12-25T17:54:14.892Z,149.23
2022-12-25T17:56:41.697Z,171.38
2022-12-25T17:59:10.576Z,147.20
2022-12-25T18:01:38.554Z,142.18
2022-12-25T18:04:06.318Z,149.10
2022-12-25T18:06:34.480Z,143.60
2022-12-25T18:09:01.361Z,145.50
2022-12-25T18:11:32.670Z,154.68
2022-12-25T18:14:01.834Z,137.80
2022-12-25T18:16:30.480Z,141.63
2022-12-25T18:18:59.514Z,138.48
2022-12-25T18:21:26.592Z,150.98
2022-12-25T18:23:53.454Z,137.27
2022-12-25T18:26:20.884Z,151.05
2022-12-25T18:28:48.326Z,144.32
2022-12-25T18:31:17.537Z,152.48
2022-12-25T18:33:44.698Z,143.40
2022-12-25T18:36:16.706Z,146.10
2022-12-25T18:38:43.512Z,140.82
2022-12-25T18:41:10.897Z,151.77
2022-12-25T18:43:52.096Z,145.82
2022-12-25T18:46:24.481Z,156.68
2022-12-25T18:48:52.212Z,161.75
2022-12-25T18:51:19.203Z,148.90
2022-12-25T18:53:46.234Z,159.15
2022-12-25T18:56:15.253Z,153.68
2022-12-25T18:58:42.856Z,157.15
2022-12-25T19:01:11.153Z,167.52
2022-12-25T19:03:38.087Z,165.07
2022-12-25T19:06:04.875Z,164.38
2022-12-25T19:08:31.935Z,161.63
2022-12-25T19:10:59.478Z,170.82
2022-12-25T19:13:27.200Z,175.27
2022-12-25T19:15:57.094Z,169.13
2022-12-25T19:18:23.742Z,163.50
2022-12-25T19:20:51.321Z,153.75
2022-12-25T19:23:18.197Z,188.43
2022-12-25T19:25:45.605Z,161.43
2022-12-25T19:28:12.537Z,149.80
2022-12-25T19:30:39.251Z,143.25
2022-12-25T19:33:07.392Z,140.57
2022-12-25T19:35:38.714Z,143.05
2022-12-25T19:38:07.835Z,144.57
2022-12-25T19:40:38.440Z,149.07
2022-12-25T19:43:05.513Z,133.18
2022-12-25T19:45:32.466Z,127.70
2022-12-25T19:47:59.153Z,125.93
2022-12-25T19:50:28.590Z,137.88
2022-12-25T19:52:58.552Z,120.40
2022-12-25T19:55:25.220Z,134.80
2022-12-25T19:57:52.307Z,131.77
2022-12-25T20:00:19.301Z,137.13
2022-12-25T20:02:48.086Z,149.55
2022-12-25T20:05:15.167Z,141.65
2022-12-25T20:07:42.256Z,127.10
2022-12-25T20:10:09.617Z,128.82
2022-12-25T20:12:36.392Z,127.93
2022-12-25T20:15:03.191Z,137.80
2022-12-25T20:17:30.091Z,138.00
2022-12-25T20:19:56.795Z,136.07
2022-12-25T20:22:23.500Z,135.88
2022-12-25T20:24:50.175Z,135.75
2022-12-25T20:27:16.898Z,134.77
2022-12-25T20:29:43.629Z,133.52
2022-12-25T20:32:10.315Z,134.65
2022-12-25T20:34:37.058Z,138.20
2022-12-25T20:37:03.859Z,131.75
2022-12-25T20:39:30.641Z,128.80
2022-12-25T20:41:57.480Z,134.48
2022-12-25T20:44:24.176Z,138.57
2022-12-25T20:46:52.157Z,142.38
2022-12-25T20:49:39.169Z,137.13
2022-12-25T20:52:08.548Z,137.15
2022-12-25T20:54:35.264Z,126.60
2022-12-25T20:57:02.141Z,139.93
2022-12-25T20:59:35.216Z,133.05
2022-12-25T21:02:04.354Z,133.90
2022-12-25T21:04:32.333Z,138.07
2022-12-25T21:07:00.430Z,126.88
2022-12-25T21:09:27.205Z,126.07
2022-12-25T21:11:53.920Z,133.88
2022-12-25T21:14:20.627Z,119.55
2022-12-25T21:16:47.353Z,120.70
2022-12-25T21:19:14.043Z,128.88
2022-12-25T21:21:43.124Z,126.70
2022-12-25T21:24:10.614Z,121.43
2022-12-25T21:26:39.896Z,103.72
2022-12-25T21:29:09.453Z,113.97
2022-12-25T21:32:06.204Z,109.43
2022-12-25T21:34:32.976Z,104.68
2022-12-25T21:37:00.210Z,115.95
2022-12-25T21:39:26.867Z,102.53
2022-12-25T21:41:54.106Z,98.20
2022-12-25T21:44:20.763Z,97.88
2022-12-25T21:46:47.550Z,87.15
2022-12-25T21:49:34.259Z,92.53
2022-12-25T21:52:10.037Z,108.38
2022-12-25T21:54:36.828Z,106.75
2022-12-25T21:57:03.519Z,89.93
2022-12-25T21:59:31.596Z,88.10
2022-12-25T22:01:59.493Z,78.82
2022-12-25T22:04:26.513Z,79.25
2022-12-25T22:07:12.287Z,79.30
2022-12-25T22:09:39.035Z,72.35
2022-12-25T22:12:41.385Z,70.07
2022-12-25T22:15:09.789Z,67.95
2022-12-25T22:17:56.100Z,67.30
2022-12-25T22:20:24.680Z,69.40
2022-12-25T22:22:51.710Z,66.25
2022-12-25T22:25:18.915Z,69.68
2022-12-25T22:27:46.441Z,67.00
2022-12-25T22:30:17.355Z,65.47
2022-12-25T22:32:44.455Z,68.32
2022-12-25T22:35:12.439Z,63.85
2022-12-25T22:37:40.030Z,61.50
2022-12-25T22:40:07.882Z,61.78
2022-12-25T22:42:35.129Z,58.10
2022-12-25T22:45:02.251Z,60.30
2022-12-25T22:47:29.216Z,60.75
2022-12-25T22:49:55.988Z,58.40
2022-12-25T22:52:23.059Z,65.95
2022-12-25T22:54:49.874Z,64.70
2022-12-25T22:57:16.602Z,61.13
2022-12-25T22:59:43.780Z,66.82
2022-12-25T23:02:10.925Z,64.25
2022-12-25T23:04:37.981Z,70.38
2022-12-25T23:07:04.763Z,66.53
2022-12-25T23:09:31.502Z,63.72
2022-12-25T23:11:58.666Z,66.25
2022-12-25T23:14:41.620Z,66.65
2022-12-25T23:17:29.892Z,70.22
2022-12-25T23:20:19.627Z,70.22
2022-12-25T23:23:05.785Z,64.22
2022-12-25T23:25:53.071Z,65.97
2022-12-25T23:28:40.282Z,66.15
2022-12-25T23:31:07.495Z,79.50
2022-12-25T23:33:34.567Z,66.95
2022-12-25T23:36:01.206Z,68.63
2022-12-25T23:38:27.963Z,65.55
2022-12-25T23:40:54.954Z,71.32
2022-12-25T23:43:21.782Z,66.75
2022-12-25T23:45:50.839Z,68.45
2022-12-25T23:48:17.596Z,66.03
2022-12-25T23:50:44.281Z,68.00
2022-12-25T23:53:11.113Z,68.13
2022-12-25T23:55:37.929Z,70.40
2022-12-25T23:58:04.843Z,68.05
